Time;durP1;ratioP1;P1;durP2;ratioP2;P2;SDS_P1;SDS_P2;PMS_P1;PMS_P2;Temp;Humidity;BMP_temperature;BMP_pressure;BME280_temperature;BME280_humidity;BME280_pressure;Samples;Min_cycle;Max_cycle;Signal;HPM_P1;HPM_P2
2023/08/01 00:01:04;;;;;;;8.77;4.57;;;;;;;18.77;100.00;99777.14;1477522;88;21279;-84
2023/08/01 00:03:32;;;;;;;6.53;4.47;;;;;;;18.76;100.00;99776.85;1476189;88;21507;-84
2023/08/01 00:05:58;;;;;;;5.77;4.60;;;;;;;18.76;100.00;99782.21;1477265;88;22705;-85
2023/08/01 00:08:24;;;;;;;8.30;4.90;;;;;;;18.74;100.00;99774.90;1481957;88;21374;-85
2023/08/01 00:10:51;;;;;;;4.83;4.00;;;;;;;18.75;100.00;99779.73;1487877;88;21522;-83
2023/08/01 00:13:17;;;;;;;5.45;4.87;;;;;;;18.76;100.00;99774.17;1482662;88;21360;-84
2023/08/01 00:15:43;;;;;;;8.25;4.37;;;;;;;18.77;100.00;99764.27;1484594;88;21323;-85
2023/08/01 00:18:10;;;;;;;7.33;4.62;;;;;;;18.75;100.00;99764.47;1479172;88;22333;-84
2023/08/01 00:20:36;;;;;;;6.30;4.77;;;;;;;18.74;100.00;99768.20;1482612;88;21397;-84
2023/08/01 00:23:02;;;;;;;9.57;3.87;;;;;;;18.70;100.00;99760.23;1477317;88;21433;-84
2023/08/01 00:25:29;;;;;;;7.33;4.23;;;;;;;18.66;100.00;99762.53;1478421;88;22380;-83
2023/08/01 00:27:56;;;;;;;10.32;4.90;;;;;;;18.63;100.00;99750.91;1473478;88;21368;-84
2023/08/01 00:30:22;;;;;;;9.37;4.23;;;;;;;18.61;100.00;99748.14;1468204;88;21411;-84
2023/08/01 00:32:48;;;;;;;8.87;4.20;;;;;;;18.60;100.00;99743.30;1478011;88;22218;-84
2023/08/01 00:35:16;;;;;;;5.90;4.37;;;;;;;18.57;100.00;99742.41;1482433;88;21353;-85
2023/08/01 00:37:42;;;;;;;5.63;3.50;;;;;;;18.57;100.00;99742.92;1472325;88;21556;-83
2023/08/01 00:40:09;;;;;;;5.30;4.40;;;;;;;18.54;100.00;99736.14;1478676;88;22277;-84
2023/08/01 00:42:38;;;;;;;4.97;3.57;;;;;;;18.52;100.00;99732.03;1477061;88;21490;-83
2023/08/01 00:45:08;;;;;;;7.23;3.80;;;;;;;18.49;100.00;99731.41;1472283;88;21674;-84
2023/08/01 00:47:34;;;;;;;5.95;4.40;;;;;;;18.46;100.00;99729.17;1478933;88;21551;-83
2023/08/01 00:50:02;;;;;;;7.17;4.60;;;;;;;18.43;100.00;99722.09;1472692;88;21375;-83
2023/08/01 00:52:28;;;;;;;6.67;5.17;;;;;;;18.40;100.00;99726.02;1468628;88;21375;-83
2023/08/01 00:54:55;;;;;;;10.80;3.80;;;;;;;18.37;100.00;99726.97;1476640;88;22432;-83
2023/08/01 00:57:21;;;;;;;5.97;3.77;;;;;;;18.32;100.00;99730.29;1473817;88;21390;-83
2023/08/01 00:59:48;;;;;;;6.30;4.43;;;;;;;18.22;100.00;99732.11;1476724;88;21426;-83
2023/08/01 01:02:14;;;;;;;4.60;3.63;;;;;;;18.14;100.00;99723.50;1476892;88;21486;-84
2023/08/01 01:04:40;;;;;;;7.67;3.93;;;;;;;18.10;100.00;99730.33;1480304;88;21412;-83
2023/08/01 01:07:07;;;;;;;8.53;3.70;;;;;;;18.05;100.00;99730.95;1477795;88;21442;-82
2023/08/01 01:09:34;;;;;;;7.77;4.17;;;;;;;18.06;100.00;99729.09;1476566;88;21376;-83
2023/08/01 01:12:01;;;;;;;4.63;3.97;;;;;;;18.04;100.00;99730.14;1466711;88;21504;-83
2023/08/01 01:14:28;;;;;;;19.33;4.00;;;;;;;18.05;100.00;99726.94;1474579;88;22351;-83
2023/08/01 01:16:55;;;;;;;5.70;4.07;;;;;;;18.04;100.00;99722.11;1470216;88;21309;-83
2023/08/01 01:19:21;;;;;;;8.40;4.27;;;;;;;18.01;100.00;99726.55;1473343;88;22433;-82
2023/08/01 01:21:49;;;;;;;4.33;3.37;;;;;;;17.99;100.00;99724.59;1474910;88;22415;-83
2023/08/01 01:24:18;;;;;;;4.13;3.73;;;;;;;17.98;100.00;99721.63;1470555;88;21471;-83
2023/08/01 01:26:46;;;;;;;10.00;3.30;;;;;;;17.96;100.00;99722.35;1474510;88;21508;-84
2023/08/01 01:29:12;;;;;;;9.30;4.67;;;;;;;17.96;100.00;99721.02;1478914;88;21375;-83
2023/08/01 01:31:39;;;;;;;5.60;3.63;;;;;;;17.93;100.00;99721.44;1481183;88;22437;-83
2023/08/01 01:34:05;;;;;;;5.17;3.70;;;;;;;17.91;100.00;99723.50;1465657;88;21345;-84
2023/08/01 01:36:31;;;;;;;4.13;3.73;;;;;;;17.87;100.00;99722.29;1477056;88;21501;-86
2023/08/01 01:38:57;;;;;;;5.80;3.40;;;;;;;17.86;100.00;99724.64;1470768;88;21309;-87
2023/08/01 01:48:36;;;;;;;7.12;4.53;;;;;;;17.85;100.00;99716.84;1415303;89;23085;-86
2023/08/01 01:51:02;;;;;;;5.67;3.33;;;;;;;17.81;100.00;99709.76;1414964;91;22249;-83
2023/08/01 01:53:28;;;;;;;6.83;4.00;;;;;;;17.77;100.00;99713.84;1414610;91;21406;-85
2023/08/01 01:55:55;;;;;;;6.57;3.57;;;;;;;17.75;100.00;99716.75;1430424;91;21493;-85
2023/08/01 01:58:21;;;;;;;6.23;4.27;;;;;;;17.73;100.00;99713.45;1418425;91;21436;-85
2023/08/01 02:00:49;;;;;;;19.40;4.43;;;;;;;17.69;100.00;99710.87;1436013;91;22315;-85
2023/08/01 02:03:15;;;;;;;5.73;3.57;;;;;;;17.68;100.00;99709.77;1423336;91;21508;-84
2023/08/01 02:05:42;;;;;;;6.37;3.37;;;;;;;17.65;100.00;99703.50;1428554;91;21494;-84
2023/08/01 02:08:08;;;;;;;7.87;3.37;;;;;;;17.62;100.00;99705.27;1428682;91;21456;-84
2023/08/01 02:10:34;;;;;;;6.17;3.93;;;;;;;17.57;100.00;99701.34;1426861;91;21471;-83
2023/08/01 02:13:01;;;;;;;6.13;3.87;;;;;;;17.57;100.00;99704.55;1426869;91;21582;-85
2023/08/01 02:15:27;;;;;;;5.20;3.30;;;;;;;17.52;100.00;99709.21;1421594;91;21457;-84
2023/08/01 02:17:53;;;;;;;8.83;3.80;;;;;;;17.45;100.00;99713.73;1424432;91;21457;-88
2023/08/01 02:20:19;;;;;;;3.93;3.00;;;;;;;17.38;100.00;99723.65;1427846;91;21612;-84
2023/08/01 02:22:46;;;;;;;5.10;3.60;;;;;;;17.34;100.00;99727.23;1462623;88;22615;-84
2023/08/01 02:25:12;;;;;;;7.00;3.17;;;;;;;17.30;100.00;99728.69;1476698;88;22402;-84
2023/08/01 02:27:39;;;;;;;4.87;3.57;;;;;;;17.27;100.00;99733.13;1484873;88;21544;-83
2023/08/01 02:30:07;;;;;;;6.33;3.27;;;;;;;17.24;100.00;99729.53;1482367;88;21404;-83
2023/08/01 02:32:33;;;;;;;6.53;3.27;;;;;;;17.19;100.00;99721.82;1484998;88;21344;-83
2023/08/01 02:34:59;;;;;;;15.67;4.13;;;;;;;17.16;100.00;99726.25;1477810;88;21411;-83
2023/08/01 02:37:25;;;;;;;10.87;3.90;;;;;;;17.12;100.00;99725.33;1464174;88;21382;-83
2023/08/01 02:39:53;;;;;;;6.30;3.60;;;;;;;17.08;100.00;99733.44;1465400;88;22403;-83
2023/08/01 02:42:19;;;;;;;4.53;3.00;;;;;;;17.03;100.00;99734.59;1479973;88;21324;-83
2023/08/01 02:44:45;;;;;;;5.57;3.80;;;;;;;17.01;100.00;99742.52;1482688;88;21602;-84
2023/08/01 02:47:12;;;;;;;7.40;3.40;;;;;;;16.95;100.00;99742.00;1483377;88;22893;-86
2023/08/01 02:49:38;;;;;;;9.83;3.30;;;;;;;16.93;100.00;99743.53;1478826;88;21360;-85
2023/08/01 02:52:04;;;;;;;4.97;3.77;;;;;;;16.91;100.00;99744.23;1481070;88;21368;-85
2023/08/01 02:54:31;;;;;;;5.83;3.93;;;;;;;16.88;100.00;99744.66;1485685;88;21359;-85
2023/08/01 02:56:57;;;;;;;10.20;4.10;;;;;;;16.84;100.00;99743.43;1481041;88;22247;-86
2023/08/01 02:59:24;;;;;;;8.20;3.43;;;;;;;16.83;100.00;99747.11;1476811;88;21367;-83
2023/08/01 03:01:50;;;;;;;8.83;3.77;;;;;;;16.83;100.00;99739.94;1483511;88;21463;-83
2023/08/01 03:04:16;;;;;;;15.47;5.23;;;;;;;16.87;100.00;99743.02;1477731;88;21471;-84
2023/08/01 03:06:42;;;;;;;6.97;3.67;;;;;;;16.87;100.00;99739.01;1468182;88;21419;-83
2023/08/01 03:09:09;;;;;;;7.03;3.80;;;;;;;16.85;100.00;99732.52;1456162;88;22410;-85
2023/08/01 03:11:38;;;;;;;9.30;4.13;;;;;;;16.84;100.00;99739.42;1477530;88;21396;-86
2023/08/01 03:14:04;;;;;;;5.23;3.50;;;;;;;16.81;100.00;99741.17;1475642;88;21667;-85
2023/08/01 03:16:31;;;;;;;9.10;3.53;;;;;;;16.75;100.00;99741.96;1479443;88;21412;-84
2023/08/01 03:19:00;;;;;;;6.23;3.60;;;;;;;16.69;100.00;99741.74;1482857;88;22297;-84
2023/08/01 03:21:26;;;;;;;4.73;3.30;;;;;;;16.66;100.00;99737.33;1475120;88;21484;-83
2023/08/01 03:23:52;;;;;;;3.90;3.33;;;;;;;16.64;100.00;99735.36;1475970;88;22526;-83
2023/08/01 03:26:19;;;;;;;4.93;3.57;;;;;;;16.62;100.00;99743.56;1480692;88;21500;-84
2023/08/01 03:28:45;;;;;;;7.40;2.93;;;;;;;16.61;100.00;99740.59;1482161;87;21515;-84
2023/08/01 03:31:12;;;;;;;7.73;3.83;;;;;;;16.59;100.00;99735.97;1461368;88;21390;-83
2023/08/01 03:33:38;;;;;;;11.23;3.83;;;;;;;16.56;100.00;99732.88;1487044;88;22542;-83
2023/08/01 03:36:04;;;;;;;9.13;4.60;;;;;;;16.54;100.00;99730.41;1482281;88;21322;-84
2023/08/01 03:38:31;;;;;;;8.07;3.50;;;;;;;16.54;100.00;99732.25;1490146;88;22255;-83
2023/08/01 03:40:57;;;;;;;8.90;3.93;;;;;;;16.54;100.00;99737.08;1478223;88;21448;-83
2023/08/01 03:43:24;;;;;;;4.67;3.17;;;;;;;16.54;100.00;99733.08;1476556;88;21374;-84
2023/08/01 03:45:51;;;;;;;6.77;4.07;;;;;;;16.53;100.00;99736.78;1479868;88;21560;-90
2023/08/01 03:48:17;;;;;;;9.77;4.33;;;;;;;16.53;100.00;99734.11;1484102;88;21353;-91
2023/08/01 03:50:44;;;;;;;8.37;4.87;;;;;;;16.54;100.00;99723.72;1480707;88;21567;-87
2023/08/01 03:53:10;;;;;;;5.10;3.70;;;;;;;16.54;100.00;99727.73;1482352;88;21382;-89
2023/08/01 03:55:36;;;;;;;6.10;4.13;;;;;;;16.53;100.00;99727.43;1459238;88;21419;-89
2023/08/01 03:58:02;;;;;;;9.93;4.33;;;;;;;16.51;100.00;99728.14;1474880;88;21463;-89
2023/08/01 04:00:32;;;;;;;6.67;4.37;;;;;;;16.49;100.00;99727.55;1474879;88;21565;-88
2023/08/01 04:02:57;;;;;;;5.87;3.83;;;;;;;16.45;100.00;99729.77;1482818;88;21526;-86
2023/08/01 04:05:24;;;;;;;4.53;3.47;;;;;;;16.44;100.00;99729.98;1481168;88;21477;-88
2023/08/01 04:07:50;;;;;;;10.63;3.93;;;;;;;16.45;100.00;99728.95;1477059;88;21517;-88
2023/08/01 04:10:16;;;;;;;10.37;4.07;;;;;;;16.44;100.00;99732.66;1483235;88;21547;-87
2023/08/01 04:12:43;;;;;;;10.03;4.37;;;;;;;16.44;100.00;99735.33;1484053;88;21463;-87
2023/08/01 04:15:10;;;;;;;7.33;3.60;;;;;;;16.44;100.00;99735.33;1475971;88;21450;-88
2023/08/01 04:17:36;;;;;;;7.97;4.00;;;;;;;16.46;100.00;99734.63;1479310;88;21374;-87
2023/08/01 04:20:03;;;;;;;7.27;4.03;;;;;;;16.45;100.00;99735.11;1482831;88;22343;-87
2023/08/01 04:22:29;;;;;;;5.57;3.30;;;;;;;16.46;100.00;99738.63;1487332;88;22269;-86
2023/08/01 04:24:56;;;;;;;5.13;3.27;;;;;;;16.48;100.00;99740.56;1480185;88;22770;-84
2023/08/01 04:27:22;;;;;;;8.93;3.50;;;;;;;16.50;100.00;99739.86;1476122;88;21426;-87
2023/08/01 04:29:49;;;;;;;7.23;3.27;;;;;;;16.54;100.00;99731.73;1477754;88;21382;-85
2023/08/01 04:32:15;;;;;;;6.97;3.50;;;;;;;16.59;100.00;99730.62;1479768;88;21530;-86
2023/08/01 04:34:42;;;;;;;15.47;3.97;;;;;;;16.65;100.00;99731.14;1478737;88;21567;-85
2023/08/01 04:37:10;;;;;;;5.53;4.10;;;;;;;16.79;100.00;99713.82;1475712;88;22431;-86
2023/08/01 04:39:36;;;;;;;8.73;4.87;;;;;;;16.86;100.00;99712.80;1481977;88;21375;-86
2023/08/01 04:42:03;;;;;;;8.37;3.87;;;;;;;16.98;100.00;99708.99;1477140;88;21322;-87
2023/08/01 04:44:30;;;;;;;8.50;4.20;;;;;;;17.06;100.00;99700.77;1480608;88;21501;-86
2023/08/01 04:46:56;;;;;;;7.03;4.03;;;;;;;17.13;100.00;99701.56;1473085;88;21795;-85
2023/08/01 04:49:24;;;;;;;7.07;4.13;;;;;;;17.18;100.00;99700.95;1480277;88;21426;-87
2023/08/01 04:51:51;;;;;;;7.23;3.33;;;;;;;17.22;100.00;99700.02;1477581;88;21479;-85
2023/08/01 04:54:17;;;;;;;6.93;3.50;;;;;;;17.29;100.00;99703.48;1479648;88;21405;-88
2023/08/01 04:56:43;;;;;;;8.57;4.03;;;;;;;17.36;100.00;99698.95;1478462;88;22255;-90
2023/08/01 04:59:10;;;;;;;11.33;3.80;;;;;;;17.44;100.00;99694.72;1481950;88;21308;-83
2023/08/01 05:01:36;;;;;;;6.83;4.37;;;;;;;17.57;100.00;99694.66;1481957;88;21382;-84
2023/08/01 05:04:02;;;;;;;8.87;4.73;;;;;;;17.63;100.00;99697.53;1480912;88;21500;-85
2023/08/01 05:06:28;;;;;;;8.87;5.03;;;;;;;17.65;100.00;99702.16;1478173;88;21360;-83
2023/08/01 05:08:55;;;;;;;11.60;4.87;;;;;;;17.70;100.00;99701.84;1485974;88;21523;-84
2023/08/01 05:11:21;;;;;;;8.07;3.57;;;;;;;17.77;100.00;99703.14;1478144;88;21492;-84
2023/08/01 05:13:48;;;;;;;5.13;3.80;;;;;;;17.83;100.00;99699.64;1480404;88;21486;-84
2023/08/01 05:16:14;;;;;;;5.10;3.80;;;;;;;17.93;100.00;99705.38;1482862;88;21367;-84
2023/08/01 05:18:40;;;;;;;8.60;4.25;;;;;;;18.01;100.00;99706.47;1469629;88;22475;-84
2023/08/01 05:21:06;;;;;;;11.28;3.95;;;;;;;18.10;100.00;99707.05;1471494;88;21835;-84
2023/08/01 05:23:34;;;;;;;12.58;4.28;;;;;;;18.17;100.00;99705.66;1475705;88;21522;-84
2023/08/01 05:26:00;;;;;;;9.95;3.80;;;;;;;18.29;100.00;99715.17;1458724;88;21546;-88
2023/08/01 05:28:26;;;;;;;19.05;5.12;;;;;;;18.35;100.00;99711.10;1460679;88;21967;-83
2023/08/01 05:30:52;;;;;;;7.80;3.50;;;;;;;18.44;100.00;99717.88;1472259;88;21592;-85
2023/08/01 05:33:19;;;;;;;8.73;3.05;;;;;;;18.56;100.00;99717.15;1447699;88;21575;-85
2023/08/01 05:35:45;;;;;;;9.20;4.30;;;;;;;18.70;100.00;99705.30;1476194;88;21449;-85
2023/08/01 05:38:11;;;;;;;7.50;3.37;;;;;;;18.83;100.00;99698.53;1476428;88;21531;-84
2023/08/01 05:40:38;;;;;;;8.13;3.83;;;;;;;18.92;100.00;99698.55;1474155;88;21360;-85
2023/08/01 05:43:04;;;;;;;8.00;3.90;;;;;;;19.04;100.00;99700.51;1471894;88;21473;-86
2023/08/01 05:45:33;;;;;;;13.32;4.37;;;;;;;19.19;100.00;99696.98;1471839;88;21478;-83
2023/08/01 05:48:01;;;;;;;6.42;4.05;;;;;;;19.36;100.00;99704.74;1472576;88;21411;-84
2023/08/01 05:50:27;;;;;;;10.38;4.50;;;;;;;19.43;100.00;99707.88;1481911;88;21360;-85
2023/08/01 05:52:53;;;;;;;11.40;4.22;;;;;;;19.53;100.00;99709.50;1476019;88;21411;-86
2023/08/01 05:55:20;;;;;;;6.33;3.50;;;;;;;19.63;100.00;99709.81;1481699;88;21382;-85
2023/08/01 05:57:48;;;;;;;6.70;4.83;;;;;;;19.74;100.00;99705.59;1473645;88;21367;-83
2023/08/01 06:00:16;;;;;;;8.30;3.87;;;;;;;19.84;100.00;99709.36;1473875;88;21493;-84
2023/08/01 06:02:42;;;;;;;5.95;3.27;;;;;;;19.91;100.00;99708.45;1470313;88;21316;-84
2023/08/01 06:05:08;;;;;;;9.00;3.62;;;;;;;20.03;100.00;99712.86;1475847;88;21574;-84
2023/08/01 06:07:34;;;;;;;6.15;3.60;;;;;;;20.14;100.00;99724.70;1475192;88;21383;-82
2023/08/01 06:10:01;;;;;;;8.98;3.22;;;;;;;20.27;100.00;99715.10;1475204;88;21426;-83
2023/08/01 06:12:28;;;;;;;9.30;3.83;;;;;;;20.42;100.00;99717.89;1475182;88;21530;-83
2023/08/01 06:14:55;;;;;;;6.60;3.08;;;;;;;20.58;100.00;99717.80;1468272;88;21360;-83
2023/08/01 06:21:20;;;;;;;7.90;3.85;;;;;;;21.02;100.00;99711.07;1559112;88;21258;-82
2023/08/01 06:23:46;;;;;;;8.05;4.22;;;;;;;21.02;100.00;99711.07;1405190;88;21568;-82
2023/08/01 06:26:12;;;;;;;9.80;3.80;;;;;;;21.26;100.00;99720.48;1530702;88;21383;-84
2023/08/01 06:28:38;;;;;;;9.68;3.35;;;;;;;21.42;100.00;99722.50;1475803;88;21545;-85
2023/08/01 06:31:05;;;;;;;6.83;3.60;;;;;;;21.54;98.38;99723.30;1481998;88;21589;-87
2023/08/01 06:33:31;;;;;;;12.73;3.85;;;;;;;21.61;99.25;99722.66;1477032;88;21434;-86
2023/08/01 06:35:57;;;;;;;10.75;3.65;;;;;;;21.72;98.58;99722.34;1456905;88;21537;-83
2023/08/01 06:38:23;;;;;;;8.93;2.75;;;;;;;21.84;98.41;99722.31;1481371;88;22283;-82
2023/08/01 06:40:49;;;;;;;11.88;3.42;;;;;;;21.96;97.83;99723.09;1480046;88;21346;-83
2023/08/01 06:43:19;;;;;;;8.75;2.70;;;;;;;22.07;96.93;99722.77;1477931;88;21540;-81
2023/08/01 06:45:44;;;;;;;12.35;4.08;;;;;;;22.17;95.71;99721.63;1478436;88;21538;-84
2023/08/01 06:48:10;;;;;;;5.20;2.50;;;;;;;22.20;94.63;99711.71;1479781;88;21531;-84
2023/08/01 06:50:36;;;;;;;13.60;2.90;;;;;;;22.21;94.48;99709.83;1474659;88;21367;-85
2023/08/01 06:53:03;;;;;;;13.85;3.55;;;;;;;22.24;93.71;99704.80;1477245;88;21472;-83
2023/08/01 06:55:29;;;;;;;7.62;2.72;;;;;;;22.30;94.37;99704.36;1480178;88;21705;-83
2023/08/01 06:57:55;;;;;;;8.00;3.02;;;;;;;22.38;93.99;99703.94;1474320;88;21308;-84
2023/08/01 07:00:22;;;;;;;10.68;2.90;;;;;;;22.42;92.95;99697.02;1474918;88;21538;-84
2023/08/01 07:02:48;;;;;;;5.53;2.60;;;;;;;22.51;92.94;99698.78;1474251;88;21360;-83
2023/08/01 07:05:14;;;;;;;8.70;3.17;;;;;;;22.65;92.87;99700.64;1428090;91;22052;-82
2023/08/01 07:07:41;;;;;;;12.90;3.75;;;;;;;22.72;93.37;99692.66;1477194;88;21420;-85
2023/08/01 07:10:08;;;;;;;7.10;2.55;;;;;;;22.82;92.64;99689.86;1477963;88;21528;-84
2023/08/01 07:12:34;;;;;;;6.87;2.33;;;;;;;22.90;91.90;99692.96;1476356;88;21456;-83
2023/08/01 07:15:01;;;;;;;7.58;2.98;;;;;;;23.01;88.93;99691.78;1475909;88;21375;-83
2023/08/01 07:17:27;;;;;;;4.37;2.15;;;;;;;23.05;87.33;99687.54;1475980;88;22254;-84
2023/08/01 07:19:54;;;;;;;5.37;2.47;;;;;;;23.09;87.36;99688.67;1477586;88;22269;-84
2023/08/01 07:22:21;;;;;;;4.40;2.17;;;;;;;23.21;88.17;99689.37;1478962;88;21489;-84
2023/08/01 07:24:47;;;;;;;12.23;2.85;;;;;;;23.36;87.68;99695.51;1480082;88;21493;-84
2023/08/01 07:27:14;;;;;;;8.28;2.47;;;;;;;23.49;87.11;99695.16;1481344;88;22172;-85
2023/08/01 07:29:40;;;;;;;8.30;2.58;;;;;;;23.64;87.36;99699.93;1475979;88;21441;-85
2023/08/01 07:32:07;;;;;;;13.18;2.95;;;;;;;23.81;86.93;99710.70;1475050;88;21850;-83
2023/08/01 07:34:33;;;;;;;8.13;1.87;;;;;;;23.94;84.77;99706.28;1482629;88;21448;-83
2023/08/01 07:36:59;;;;;;;6.60;3.15;;;;;;;23.98;84.11;99703.87;1481578;88;21418;-82
2023/08/01 07:39:25;;;;;;;8.63;2.20;;;;;;;24.04;84.19;99696.11;1482620;88;22366;-83
2023/08/01 07:41:51;;;;;;;7.40;2.33;;;;;;;24.10;80.92;99707.25;1482349;88;21489;-83
2023/08/01 07:44:17;;;;;;;4.78;1.92;;;;;;;24.15;80.94;99701.09;1466058;88;21426;-83
2023/08/01 07:46:44;;;;;;;5.28;1.70;;;;;;;24.16;80.66;99711.63;1481022;88;21352;-83
2023/08/01 07:49:10;;;;;;;9.45;2.62;;;;;;;24.20;81.08;99698.45;1479814;88;22343;-83
2023/08/01 07:51:36;;;;;;;6.05;2.02;;;;;;;24.29;80.45;99705.83;1481030;88;21516;-83
2023/08/01 07:54:03;;;;;;;6.95;2.35;;;;;;;24.38;80.60;99706.72;1480758;88;21597;-84
2023/08/01 07:56:29;;;;;;;6.00;3.02;;;;;;;24.46;80.33;99703.59;1480155;88;22225;-82
2023/08/01 07:58:55;;;;;;;8.83;2.10;;;;;;;24.62;80.07;99712.10;1478932;88;21501;-82
2023/08/01 08:01:22;;;;;;;6.62;2.50;;;;;;;24.68;78.98;99707.01;1482559;88;21817;-84
2023/08/01 08:03:48;;;;;;;6.10;2.35;;;;;;;24.73;78.16;99704.34;1479510;88;22320;-83
2023/08/01 08:06:15;;;;;;;8.63;2.25;;;;;;;24.86;78.83;99710.39;1479488;88;21419;-82
2023/08/01 08:08:41;;;;;;;6.72;2.30;;;;;;;24.95;78.63;99708.86;1478908;88;21389;-83
2023/08/01 08:11:07;;;;;;;10.38;2.35;;;;;;;25.01;78.84;99702.41;1481470;88;21581;-81
2023/08/01 08:13:33;;;;;;;11.33;2.52;;;;;;;25.11;78.40;99698.94;1482749;88;22298;-83
2023/08/01 08:16:00;;;;;;;6.97;2.30;;;;;;;25.20;78.62;99702.30;1476479;88;21308;-83
2023/08/01 08:18:26;;;;;;;5.65;2.30;;;;;;;25.31;78.12;99697.73;1478741;88;21352;-82
2023/08/01 08:20:52;;;;;;;9.15;2.02;;;;;;;25.43;77.66;99703.78;1481600;88;21322;-85
2023/08/01 08:23:19;;;;;;;5.87;1.92;;;;;;;25.58;77.14;99702.22;1473610;88;21411;-82
2023/08/01 08:25:52;;;;;;;9.65;2.52;;;;;;;25.70;75.20;99696.58;1475344;88;21448;-82
2023/08/01 08:28:30;;;;;;;7.37;2.20;;;;;;;25.76;74.43;99690.09;1559260;88;21295;-82
2023/08/01 08:30:56;;;;;;;9.28;2.22;;;;;;;25.78;74.23;99691.97;1553006;88;21445;-84
2023/08/01 08:33:23;;;;;;;8.75;2.70;;;;;;;25.89;74.65;99688.25;1559121;88;21221;-85
2023/08/01 08:35:49;;;;;;;8.55;2.20;;;;;;;25.96;72.12;99683.95;1398799;88;21443;-83
2023/08/01 08:38:17;;;;;;;6.58;2.30;;;;;;;25.99;72.56;99680.16;1398152;88;21331;-84
2023/08/01 08:41:17;;;;;;;6.70;2.33;;;;;;;26.00;71.95;99685.84;1437587;88;21553;-86
2023/08/01 08:47:44;;;;;;;9.40;1.75;;;;;;;26.24;71.59;99681.27;1559108;88;21184;-82
2023/08/01 08:54:09;;;;;;;5.47;2.02;;;;;;;26.26;64.10;99666.36;1559122;88;21206;-83
2023/08/01 08:56:36;;;;;;;9.35;1.95;;;;;;;26.44;61.37;99673.18;1407024;88;21431;-84
2023/08/01 08:59:02;;;;;;;5.58;2.30;;;;;;;26.48;62.16;99670.73;1407172;88;22130;-84
2023/08/01 09:01:30;;;;;;;4.70;1.85;;;;;;;26.61;61.75;99672.91;1475022;88;21537;-83
2023/08/01 09:03:57;;;;;;;11.45;2.42;;;;;;;26.75;61.06;99669.11;1469449;88;21515;-83
2023/08/01 09:06:54;;;;;;;6.25;1.77;;;;;;;26.81;57.46;99671.28;1460503;88;21404;-83
2023/08/01 09:13:19;;;;;;;14.07;2.30;;;;;;;26.90;54.48;99658.78;1559198;88;22108;-86
2023/08/01 09:15:46;;;;;;;12.75;1.72;;;;;;;27.11;55.39;99660.38;1404302;88;21294;-84
2023/08/01 09:18:13;;;;;;;7.78;2.47;;;;;;;27.18;53.79;99660.92;1399523;88;21258;-87
2023/08/01 09:20:47;;;;;;;7.33;1.72;;;;;;;27.23;48.98;99655.48;1398382;88;21354;-84
2023/08/01 09:23:15;;;;;;;7.35;1.65;;;;;;;27.31;48.92;99656.02;1553239;88;21331;-84
2023/08/01 09:25:42;;;;;;;7.97;2.35;;;;;;;27.29;46.64;99656.83;1382522;90;21524;-83
2023/08/01 09:28:23;;;;;;;11.73;2.17;;;;;;;27.15;46.74;99651.13;1398987;88;21406;-84
2023/08/01 09:30:55;;;;;;;13.22;2.40;;;;;;;27.00;46.69;99653.34;1563442;88;21206;-82
2023/08/01 09:33:22;;;;;;;12.85;2.08;;;;;;;26.98;46.39;99645.45;1399269;88;21235;-83
2023/08/01 09:35:50;;;;;;;4.22;1.70;;;;;;;27.03;46.72;99649.27;1407143;88;21372;-85
2023/08/01 09:38:17;;;;;;;9.73;1.92;;;;;;;27.01;45.25;99644.91;1556957;88;21338;-83
2023/08/01 09:40:45;;;;;;;9.30;2.10;;;;;;;26.90;45.17;99648.76;1401538;88;21393;-84
2023/08/01 09:43:12;;;;;;;5.25;1.80;;;;;;;26.98;46.12;99645.45;1406541;88;22042;-84
2023/08/01 09:45:53;;;;;;;6.10;1.90;;;;;;;27.14;45.48;99638.64;1381959;89;21545;-86
2023/08/01 09:48:29;;;;;;;10.78;1.98;;;;;;;27.28;45.54;99640.27;1559106;88;22027;-84
2023/08/01 09:51:15;;;;;;;11.10;3.22;;;;;;;27.45;44.68;99637.48;1563411;88;22094;-84
2023/08/01 09:53:56;;;;;;;21.65;2.47;;;;;;;27.53;44.58;99629.27;1563458;88;21184;-84
2023/08/01 09:56:26;;;;;;;7.75;1.60;;;;;;;27.59;44.78;99624.10;1526274;88;21618;-84
2023/08/01 09:58:55;;;;;;;7.40;2.02;;;;;;;27.66;45.06;99622.42;1477465;88;22224;-87
2023/08/01 10:01:24;;;;;;;11.90;2.05;;;;;;;27.78;44.51;99618.81;1476567;88;22298;-85
2023/08/01 10:03:53;;;;;;;7.05;1.75;;;;;;;27.89;44.12;99619.05;1549800;88;21126;-84
2023/08/01 10:06:24;;;;;;;6.25;1.92;;;;;;;27.98;43.90;99613.02;1396049;88;21473;-83
2023/08/01 10:08:52;;;;;;;7.08;2.22;;;;;;;28.04;42.91;99615.41;1400725;89;21278;-83
2023/08/01 10:11:21;;;;;;;7.67;1.95;;;;;;;27.98;40.66;99612.47;1399822;88;21382;-82
2023/08/01 10:13:54;;;;;;;11.40;2.17;;;;;;;28.03;40.58;99611.63;1399470;88;21243;-83
2023/08/01 10:16:21;;;;;;;7.08;1.80;;;;;;;28.05;40.80;99606.70;1400835;88;21317;-85
2023/08/01 10:18:48;;;;;;;6.50;1.82;;;;;;;28.07;41.25;99605.88;1400558;88;22197;-86
2023/08/01 10:21:17;;;;;;;5.25;2.17;;;;;;;28.14;41.09;99610.46;1407378;88;21206;-82
2023/08/01 10:23:45;;;;;;;8.28;2.15;;;;;;;28.25;40.74;99603.81;1559404;88;21161;-81
2023/08/01 10:26:12;;;;;;;48.50;4.55;;;;;;;28.43;41.02;99605.08;1406122;88;21413;-82
2023/08/01 10:28:42;;;;;;;6.45;2.20;;;;;;;28.61;40.48;99594.02;1403448;88;21228;-81
2023/08/01 10:31:14;;;;;;;8.35;2.08;;;;;;;28.74;40.03;99591.16;1406506;88;21279;-81
2023/08/01 10:33:44;;;;;;;5.15;2.15;;;;;;;28.87;39.80;99592.40;1381479;89;21346;-81
2023/08/01 10:36:27;;;;;;;2.83;1.75;;;;;;;28.84;38.92;99591.62;1399856;89;21559;-80
2023/08/01 10:38:57;;;;;;;10.65;2.00;;;;;;;28.84;39.23;99590.25;1566175;88;21191;-82
2023/08/01 10:41:30;;;;;;;9.00;1.90;;;;;;;28.79;38.90;99582.39;1446820;88;21352;-81
2023/08/01 10:44:09;;;;;;;13.43;3.20;;;;;;;28.82;38.76;99584.28;1480323;88;21757;-81
2023/08/01 10:47:04;;;;;;;4.30;1.80;;;;;;;28.89;38.97;99577.95;1481985;88;21879;-81
2023/08/01 10:50:00;;;;;;;8.05;1.60;;;;;;;28.96;39.24;99579.20;1431586;91;21433;-81
2023/08/01 10:52:27;;;;;;;4.12;2.00;;;;;;;28.95;39.07;99576.79;1489628;91;21496;-82
2023/08/01 10:55:11;;;;;;;3.40;2.25;;;;;;;29.07;38.77;99580.50;1513835;91;22301;-84
2023/08/01 10:57:50;;;;;;;10.70;2.02;;;;;;;29.12;38.10;99573.08;1391153;88;21374;-83
2023/08/01 11:00:44;;;;;;;3.60;1.57;;;;;;;29.22;37.69;99562.03;1565644;88;21191;-81
2023/08/01 11:03:10;;;;;;;6.25;2.52;;;;;;;29.23;38.16;99556.02;1403992;88;21423;-81
2023/08/01 11:05:39;;;;;;;4.42;2.27;;;;;;;29.26;38.19;99546.45;1403896;88;21301;-83
2023/08/01 11:08:13;;;;;;;11.93;2.40;;;;;;;29.30;37.97;99548.88;1391137;89;21316;-82
2023/08/01 11:10:39;;;;;;;10.18;1.70;;;;;;;29.32;37.59;99541.19;1563814;88;21929;-83
2023/08/01 11:13:05;;;;;;;5.62;1.82;;;;;;;29.36;37.54;99540.88;1400661;88;21257;-82
2023/08/01 11:15:32;;;;;;;6.10;1.92;;;;;;;29.21;37.42;99537.81;1403892;88;21257;-82
2023/08/01 11:17:58;;;;;;;5.17;1.85;;;;;;;29.19;37.45;99537.29;1408996;88;21367;-82
2023/08/01 11:20:26;;;;;;;7.67;2.62;;;;;;;29.26;37.31;99530.11;1400406;88;21264;-83
2023/08/01 11:22:57;;;;;;;5.30;1.70;;;;;;;29.28;37.86;99532.00;1382822;89;21235;-83
2023/08/01 11:25:33;;;;;;;7.58;2.42;;;;;;;29.35;37.77;99524.28;1412641;88;22308;-82
2023/08/01 11:28:10;;;;;;;9.25;2.22;;;;;;;29.40;37.75;99511.92;1386207;89;22195;-82
2023/08/01 11:30:37;;;;;;;5.08;1.92;;;;;;;29.49;38.33;99514.23;1403198;89;21315;-81
2023/08/01 11:33:22;;;;;;;4.40;1.92;;;;;;;29.55;38.09;99508.16;1402749;88;21242;-83
2023/08/01 11:35:59;;;;;;;6.72;1.87;;;;;;;29.57;38.30;99506.77;1387170;89;21331;-82
2023/08/01 11:38:29;;;;;;;3.85;1.70;;;;;;;29.64;38.01;99500.98;1562055;88;21293;-83
2023/08/01 11:40:58;;;;;;;15.38;2.33;;;;;;;29.78;37.33;99492.84;1400267;88;21353;-83
2023/08/01 11:43:24;;;;;;;5.30;2.12;;;;;;;29.83;37.29;99488.67;1401433;88;22084;-84
2023/08/01 11:45:54;;;;;;;3.98;2.20;;;;;;;29.75;36.96;99480.63;1404028;88;22151;-83
2023/08/01 11:52:37;;;;;;;6.78;2.30;;;;;;;29.90;37.71;99482.30;1565641;88;21421;-83
2023/08/01 11:55:04;;;;;;;5.60;2.17;;;;;;;29.82;37.67;99472.86;1409546;88;21517;-83
2023/08/01 11:57:30;;;;;;;4.83;1.62;;;;;;;29.75;37.50;99473.81;1468234;88;22484;-83